Time;durP1;ratioP1;P1;durP2;ratioP2;P2;SDS_P1;SDS_P2;PMS_P1;PMS_P2;Temp;Humidity;BMP_temperature;BMP_pressure;BME280_temperature;BME280_humidity;BME280_pressure;Samples;Min_cycle;Max_cycle;Signal;HPM_P1;HPM_P2
2024/01/03 00:01:13;;;;;;;11.75;3.10;;;;;;;10.56;79.05;98671.69;5055742;28;20028;-60
2024/01/03 00:03:38;;;;;;;9.38;3.20;;;;;;;10.64;78.52;98672.63;5060492;28;20024;-60
2024/01/03 00:06:04;;;;;;;11.07;3.00;;;;;;;10.61;77.56;98664.94;5057130;28;20026;-60
2024/01/03 00:08:36;;;;;;;10.10;2.70;;;;;;;10.56;77.52;98677.03;5060648;28;20021;-61
2024/01/03 00:11:01;;;;;;;8.10;3.65;;;;;;;10.50;77.91;98657.22;5062719;28;20244;-60
2024/01/03 00:13:30;;;;;;;10.55;3.38;;;;;;;10.49;79.39;98668.81;5060239;28;20032;-60
2024/01/03 00:15:59;;;;;;;13.63;2.92;;;;;;;10.54;79.16;98674.53;5060809;28;20502;-60
2024/01/03 00:18:45;;;;;;;12.48;3.30;;;;;;;10.52;80.16;98679.16;5063445;28;20036;-60
2024/01/03 00:21:17;;;;;;;13.70;4.47;;;;;;;10.42;80.33;98691.69;5064025;28;20024;-60
2024/01/03 00:23:51;;;;;;;10.38;3.25;;;;;;;10.45;80.46;98702.00;5063130;28;20029;-60
2024/01/03 00:26:17;;;;;;;12.57;2.72;;;;;;;10.44;80.54;98702.97;5061334;28;20029;-60
2024/01/03 00:28:45;;;;;;;16.75;3.22;;;;;;;10.32;81.31;98696.19;5063457;28;20040;-60
2024/01/03 00:31:40;;;;;;;10.63;3.05;;;;;;;10.32;82.77;98714.78;5066141;28;20028;-60
2024/01/03 00:34:09;;;;;;;11.65;4.72;;;;;;;10.39;83.70;98718.53;5064005;28;20103;-60
2024/01/03 00:36:37;;;;;;;14.95;3.72;;;;;;;10.29;83.60;98715.91;5060188;28;21103;-59
2024/01/03 00:39:03;;;;;;;25.38;6.57;;;;;;;10.19;85.65;98725.75;5042332;28;20495;-59
2024/01/03 00:41:31;;;;;;;16.17;4.15;;;;;;;10.27;86.60;98725.88;5060962;28;20040;-59
2024/01/03 00:43:56;;;;;;;21.38;4.90;;;;;;;10.25;87.59;98735.78;5058390;28;20033;-60
2024/01/03 00:46:21;;;;;;;14.57;3.80;;;;;;;10.34;86.66;98734.91;5061333;28;20085;-60
2024/01/03 00:48:47;;;;;;;12.13;3.38;;;;;;;10.30;87.50;98738.88;5064048;28;20033;-60
2024/01/03 00:51:12;;;;;;;18.45;4.18;;;;;;;10.33;88.60;98743.06;5061157;28;20365;-60
2024/01/03 00:53:38;;;;;;;20.15;4.35;;;;;;;10.23;90.71;98753.66;5063068;28;20052;-60
2024/01/03 00:56:04;;;;;;;15.00;4.22;;;;;;;10.23;91.38;98724.44;5057723;28;20028;-60
2024/01/03 00:58:29;;;;;;;17.52;4.40;;;;;;;10.19;92.41;98725.75;5061210;28;20073;-60
2024/01/03 01:00:55;;;;;;;15.98;4.07;;;;;;;10.23;92.06;98741.25;5067519;28;20025;-60
2024/01/03 01:03:20;;;;;;;23.80;7.22;;;;;;;10.00;93.09;98724.00;5057740;28;20399;-60
2024/01/03 01:05:46;;;;;;;21.50;4.82;;;;;;;10.08;93.26;98737.38;5057454;28;20017;-59
2024/01/03 01:08:11;;;;;;;18.27;4.32;;;;;;;10.08;92.55;98740.03;5057775;28;20564;-60
2024/01/03 01:10:37;;;;;;;20.45;4.53;;;;;;;10.05;93.89;98756.25;5065488;28;20033;-59
2024/01/03 01:13:02;;;;;;;19.20;5.00;;;;;;;10.03;93.08;98731.69;5061205;28;20032;-60
2024/01/03 01:15:28;;;;;;;20.83;4.20;;;;;;;10.12;93.16;98748.56;5060949;28;20369;-60
2024/01/03 01:17:53;;;;;;;22.30;6.32;;;;;;;9.98;93.20;98731.28;5061907;28;20498;-60
2024/01/03 01:20:18;;;;;;;17.60;3.90;;;;;;;10.07;93.27;98764.09;5064788;28;20108;-60
2024/01/03 01:22:44;;;;;;;14.23;3.75;;;;;;;9.93;94.20;98738.84;5057762;28;20399;-60
2024/01/03 01:25:10;;;;;;;20.55;4.45;;;;;;;10.08;94.57;98769.25;5067296;28;20028;-60
2024/01/03 01:27:35;;;;;;;14.98;3.58;;;;;;;10.08;94.43;98745.34;5065334;28;20491;-60
2024/01/03 01:30:00;;;;;;;30.15;7.55;;;;;;;9.93;95.97;98763.56;5062582;28;20228;-60
2024/01/03 01:32:26;;;;;;;21.02;4.47;;;;;;;10.17;94.70;98764.88;5058096;28;20484;-60
2024/01/03 01:34:54;;;;;;;17.23;3.97;;;;;;;9.99;95.76;98755.00;5063449;28;20060;-60
2024/01/03 01:37:19;;;;;;;27.23;7.18;;;;;;;9.73;96.79;98736.22;5062776;28;20100;-60
2024/01/03 01:39:44;;;;;;;25.50;5.00;;;;;;;9.95;96.35;98758.13;5063481;28;20095;-60
2024/01/03 01:42:10;;;;;;;15.00;4.60;;;;;;;9.94;96.39;98764.41;5063614;28;20112;-60
2024/01/03 01:44:36;;;;;;;21.83;4.10;;;;;;;10.00;95.25;98756.72;5056328;28;20041;-60
2024/01/03 01:47:05;;;;;;;18.25;4.38;;;;;;;9.95;95.46;98769.56;5059616;28;20132;-60
2024/01/03 01:49:30;;;;;;;16.33;4.70;;;;;;;10.08;94.25;98768.41;5056617;28;20100;-60
2024/01/03 01:51:56;;;;;;;17.00;4.57;;;;;;;10.14;92.50;98773.16;5059166;28;20388;-60
2024/01/03 01:54:23;;;;;;;14.35;4.47;;;;;;;10.21;92.96;98785.72;5058046;28;20454;-60
2024/01/03 01:56:48;;;;;;;22.23;4.05;;;;;;;10.09;92.08;98762.97;5062912;28;20052;-60
2024/01/03 01:59:14;;;;;;;20.95;4.68;;;;;;;10.16;91.96;98785.31;5062013;28;20055;-60
2024/01/03 02:01:41;;;;;;;13.45;3.53;;;;;;;10.29;90.82;98779.69;5061906;28;20083;-60
2024/01/03 02:04:08;;;;;;;20.35;4.57;;;;;;;10.19;92.22;98771.72;5061380;28;20033;-60
2024/01/03 02:06:34;;;;;;;26.60;6.63;;;;;;;10.17;93.86;98802.91;5055540;28;20029;-60
2024/01/03 02:09:00;;;;;;;19.25;3.47;;;;;;;10.28;94.27;98811.72;5056145;28;20499;-60
2024/01/03 02:11:27;;;;;;;23.35;5.13;;;;;;;10.31;94.09;98814.94;5062015;28;20025;-60
2024/01/03 02:13:53;;;;;;;16.02;4.25;;;;;;;10.29;95.08;98826.69;5059261;28;20081;-60
2024/01/03 02:16:22;;;;;;;13.73;3.90;;;;;;;10.26;96.16;98819.78;5056632;28;20025;-60
2024/01/03 02:18:48;;;;;;;16.67;4.10;;;;;;;10.16;97.25;98825.16;5065188;28;20467;-60
2024/01/03 02:21:15;;;;;;;18.02;4.90;;;;;;;10.06;98.97;98816.38;5054731;28;20151;-60
2024/01/03 02:23:41;;;;;;;19.05;3.50;;;;;;;10.04;99.50;98826.31;5062803;28;20117;-60
2024/01/03 02:26:08;;;;;;;26.33;5.38;;;;;;;10.06;99.22;98828.81;5047893;28;20031;-59
2024/01/03 02:28:33;;;;;;;19.25;3.83;;;;;;;9.99;99.95;98824.06;5054268;28;20025;-60
2024/01/03 02:31:01;;;;;;;15.25;3.85;;;;;;;9.95;100.00;98827.16;5068284;28;20024;-60
2024/01/03 02:33:27;;;;;;;25.83;6.80;;;;;;;9.79;100.00;98819.75;5061112;28;20016;-60
2024/01/03 02:35:52;;;;;;;17.60;5.10;;;;;;;9.87;100.00;98825.22;5057724;28;20021;-60
2024/01/03 02:38:21;;;;;;;20.00;5.28;;;;;;;9.87;100.00;98817.25;5069246;28;20090;-60
2024/01/03 02:40:47;;;;;;;25.93;4.63;;;;;;;9.92;99.61;98824.78;5068059;28;20032;-60
2024/01/03 02:43:12;;;;;;;15.60;3.70;;;;;;;9.84;100.00;98822.00;5064989;28;20339;-60
2024/01/03 02:45:40;;;;;;;17.50;4.85;;;;;;;9.81;100.00;98820.47;5061738;28;20049;-60
2024/01/03 02:48:05;;;;;;;24.42;7.28;;;;;;;9.70;100.00;98824.09;5059379;28;20407;-60
2024/01/03 02:50:31;;;;;;;20.77;4.80;;;;;;;9.68;100.00;98827.91;5068767;28;20040;-60
2024/01/03 02:52:56;;;;;;;21.25;4.20;;;;;;;9.69;100.00;98837.53;5060226;28;20108;-60
2024/01/03 02:55:22;;;;;;;19.35;4.00;;;;;;;9.59;100.00;98831.38;5065914;28;20070;-60
2024/01/03 02:57:47;;;;;;;15.95;3.88;;;;;;;9.61;100.00;98832.91;5059857;28;20017;-60
2024/01/03 03:00:13;;;;;;;20.05;4.45;;;;;;;9.48;100.00;98830.56;5042234;28;20021;-60
2024/01/03 03:02:39;;;;;;;21.27;5.32;;;;;;;9.62;100.00;98836.41;5066810;28;20024;-59
2024/01/03 03:05:04;;;;;;;15.27;4.32;;;;;;;9.65;100.00;98839.63;5065090;28;20103;-60
2024/01/03 03:07:29;;;;;;;16.63;3.72;;;;;;;9.66;100.00;98843.13;5069416;28;20073;-60
2024/01/03 03:09:55;;;;;;;19.27;4.65;;;;;;;9.78;100.00;98832.22;5068604;28;20047;-60
2024/01/03 03:12:20;;;;;;;14.38;3.60;;;;;;;9.71;100.00;98839.06;5070282;28;20613;-60
2024/01/03 03:14:46;;;;;;;13.38;3.53;;;;;;;9.70;100.00;98836.53;5060430;28;20028;-60
2024/01/03 03:17:11;;;;;;;19.67;4.38;;;;;;;9.61;100.00;98819.66;5066992;28;20431;-59
2024/01/03 03:19:36;;;;;;;11.38;4.07;;;;;;;9.81;100.00;98839.06;5061560;28;20025;-60
2024/01/03 03:22:02;;;;;;;11.65;3.75;;;;;;;9.73;100.00;98853.03;5063419;28;20040;-60
2024/01/03 03:24:27;;;;;;;26.40;5.25;;;;;;;9.71;100.00;98854.16;5062882;28;20047;-60
2024/01/03 03:26:53;;;;;;;19.30;4.82;;;;;;;9.61;100.00;98848.00;5064327;28;20028;-60
2024/01/03 03:29:21;;;;;;;32.70;5.63;;;;;;;9.64;100.00;98842.41;5057868;28;20056;-60
2024/01/03 03:31:46;;;;;;;13.70;3.95;;;;;;;9.73;100.00;98837.09;5061756;28;20021;-60
2024/01/03 03:34:12;;;;;;;29.33;8.25;;;;;;;9.51;100.00;98838.22;5067602;28;20025;-60
2024/01/03 03:36:37;;;;;;;13.02;5.03;;;;;;;9.65;100.00;98852.91;5061418;28;20479;-60
2024/01/03 03:39:05;;;;;;;20.70;4.47;;;;;;;9.57;100.00;98852.75;5062332;28;20105;-60
2024/01/03 03:41:33;;;;;;;21.35;4.63;;;;;;;9.62;100.00;98847.88;5055856;28;20541;-60
2024/01/03 03:43:58;;;;;;;21.08;5.20;;;;;;;9.50;100.00;98843.66;5062502;28;20531;-60
2024/01/03 03:46:24;;;;;;;18.35;3.97;;;;;;;9.59;100.00;98844.66;5063362;28;20103;-60
2024/01/03 03:48:49;;;;;;;17.98;5.13;;;;;;;9.69;100.00;98853.47;5059472;28;20104;-60
2024/01/03 03:51:15;;;;;;;17.92;4.65;;;;;;;9.58;100.00;98833.19;5064907;28;20100;-60
2024/01/03 03:53:40;;;;;;;15.23;3.47;;;;;;;9.54;100.00;98843.25;5067783;28;20021;-60
2024/01/03 03:56:06;;;;;;;32.90;5.05;;;;;;;9.36;100.00;98826.38;5060923;28;20103;-60
2024/01/03 03:58:31;;;;;;;13.23;3.85;;;;;;;9.59;100.00;98844.66;5062628;28;20099;-59
2024/01/03 04:00:57;;;;;;;21.88;4.15;;;;;;;9.43;100.00;98846.03;5058856;28;20036;-60
2024/01/03 04:03:22;;;;;;;16.58;3.97;;;;;;;9.36;100.00;98841.44;5062233;28;20020;-60
2024/01/03 04:05:50;;;;;;;21.17;4.60;;;;;;;9.43;100.00;98831.94;5060528;28;20024;-60
2024/01/03 04:08:15;;;;;;;20.58;3.63;;;;;;;9.41;100.00;98847.16;5066155;28;20025;-59
2024/01/03 04:10:41;;;;;;;17.17;4.00;;;;;;;9.43;100.00;98856.66;5064298;28;20032;-59
2024/01/03 04:13:07;;;;;;;10.73;3.35;;;;;;;9.60;100.00;98855.13;5064699;28;20463;-60
2024/01/03 04:15:33;;;;;;;12.63;3.50;;;;;;;9.54;100.00;98850.38;5064110;28;20056;-60
2024/01/03 04:17:59;;;;;;;14.30;3.72;;;;;;;9.49;100.00;98850.78;5064165;28;20034;-60
2024/01/03 04:20:24;;;;;;;13.00;3.08;;;;;;;9.43;100.00;98848.69;5063940;28;20154;-59
2024/01/03 04:22:50;;;;;;;24.00;5.57;;;;;;;9.38;100.00;98866.00;5063823;28;20099;-60
2024/01/03 04:25:16;;;;;;;19.50;3.83;;;;;;;9.42;100.00;98859.47;5062569;28;20028;-60
2024/01/03 04:27:42;;;;;;;8.50;2.80;;;;;;;9.41;100.00;98860.41;5061859;28;20024;-60
2024/01/03 04:30:07;;;;;;;18.25;5.15;;;;;;;9.23;100.00;98858.44;5056329;28;20483;-60
2024/01/03 04:32:33;;;;;;;17.98;3.28;;;;;;;9.52;100.00;98869.09;5060605;28;20361;-60
2024/01/03 04:34:58;;;;;;;12.15;3.40;;;;;;;9.41;100.00;98863.94;5062998;28;20109;-60
2024/01/03 04:37:24;;;;;;;12.35;2.80;;;;;;;9.58;100.00;98866.88;5060949;28;20031;-59
2024/01/03 04:39:49;;;;;;;10.93;3.08;;;;;;;9.57;100.00;98867.84;5059543;28;20059;-60
2024/01/03 04:42:15;;;;;;;14.25;2.75;;;;;;;9.42;100.00;98855.00;5061435;28;20036;-60
2024/01/03 04:44:41;;;;;;;9.10;3.38;;;;;;;9.38;100.00;98847.44;5057507;28;20033;-60
2024/01/03 04:47:06;;;;;;;14.68;3.42;;;;;;;9.39;100.00;98857.94;5063421;28;20048;-60
2024/01/03 04:49:31;;;;;;;10.95;3.20;;;;;;;9.35;100.00;98867.13;5062847;28;20068;-60
2024/01/03 04:51:57;;;;;;;13.25;3.13;;;;;;;9.49;100.00;98877.34;5059160;28;20078;-60
2024/01/03 04:54:22;;;;;;;4.28;2.05;;;;;;;9.39;100.00;98857.09;5061405;28;20035;-60
2024/01/03 04:56:48;;;;;;;4.63;2.35;;;;;;;9.71;100.00;98867.44;5059406;28;20020;-60
2024/01/03 04:59:14;;;;;;;7.60;3.30;;;;;;;9.62;100.00;98874.44;5060171;28;20046;-60
2024/01/03 05:01:40;;;;;;;6.18;2.28;;;;;;;9.43;100.00;98869.94;5058376;28;20020;-60
2024/01/03 05:04:05;;;;;;;12.07;2.75;;;;;;;9.42;100.00;98867.44;5063499;28;20032;-60
2024/01/03 05:06:31;;;;;;;11.30;2.55;;;;;;;9.46;100.00;98867.00;5065068;28;20051;-60
2024/01/03 05:08:57;;;;;;;11.77;2.97;;;;;;;9.44;100.00;98874.28;5063682;28;20020;-60
2024/01/03 05:11:22;;;;;;;9.65;2.60;;;;;;;9.34;100.00;98886.69;5057478;28;20495;-59
2024/01/03 05:13:48;;;;;;;9.45;2.47;;;;;;;9.37;100.00;98886.41;5061725;28;20545;-60
2024/01/03 05:16:14;;;;;;;9.35;2.88;;;;;;;9.44;100.00;98882.25;5059580;28;20024;-60
2024/01/03 05:18:41;;;;;;;13.10;2.50;;;;;;;9.02;100.00;98826.72;5061410;28;20055;-61
2024/01/03 05:21:07;;;;;;;5.45;2.58;;;;;;;9.28;100.00;98866.00;5061809;28;20029;-60
2024/01/03 05:23:32;;;;;;;6.32;2.58;;;;;;;9.23;100.00;98873.53;5059616;28;20064;-59
2024/01/03 05:25:58;;;;;;;8.88;2.85;;;;;;;9.22;100.00;98872.69;5059496;28;20025;-60
2024/01/03 05:28:23;;;;;;;7.90;2.30;;;;;;;9.04;100.00;98859.25;5053462;28;20024;-60
2024/01/03 05:30:49;;;;;;;5.70;2.58;;;;;;;9.11;100.00;98864.84;5051270;28;20037;-60
2024/01/03 05:33:14;;;;;;;5.30;2.67;;;;;;;9.23;100.00;98868.22;5058709;28;20468;-60
2024/01/03 05:35:39;;;;;;;11.73;3.20;;;;;;;8.93;100.00;98855.88;5055845;28;20027;-60
2024/01/03 05:38:05;;;;;;;7.30;2.67;;;;;;;8.99;100.00;98877.38;5064110;28;20073;-59
2024/01/03 05:40:30;;;;;;;5.38;2.50;;;;;;;8.93;100.00;98872.63;5065962;28;20042;-60
2024/01/03 05:42:56;;;;;;;6.10;2.97;;;;;;;9.00;100.00;98889.69;5064620;28;20045;-60
2024/01/03 05:45:21;;;;;;;8.60;3.20;;;;;;;9.02;100.00;98870.97;5060411;28;20515;-60
2024/01/03 05:47:46;;;;;;;5.00;2.13;;;;;;;9.00;100.00;98887.03;5062016;28;20031;-60
2024/01/03 05:50:12;;;;;;;6.38;2.60;;;;;;;8.86;100.00;98872.34;5062480;28;20017;-61
2024/01/03 05:52:40;;;;;;;6.30;2.40;;;;;;;8.83;100.00;98875.25;5062481;28;20021;-59
2024/01/03 05:55:06;;;;;;;4.25;2.10;;;;;;;8.82;100.00;98867.41;5059124;28;20039;-60
2024/01/03 05:57:33;;;;;;;7.20;2.13;;;;;;;9.07;100.00;98876.72;5068117;28;20028;-60
2024/01/03 05:59:58;;;;;;;7.38;2.58;;;;;;;8.91;100.00;98884.34;5054293;28;20471;-60
2024/01/03 06:02:26;;;;;;;7.60;2.35;;;;;;;8.79;100.00;98873.81;5059832;28;20024;-60
2024/01/03 06:04:51;;;;;;;9.35;3.20;;;;;;;8.71;100.00;98870.19;5060310;28;20036;-60
2024/01/03 06:07:16;;;;;;;7.93;2.72;;;;;;;8.85;100.00;98897.19;5063781;28;20360;-60
2024/01/03 06:09:42;;;;;;;3.03;2.35;;;;;;;8.87;100.00;98886.41;5053679;28;20017;-60
2024/01/03 06:12:08;;;;;;;9.40;2.67;;;;;;;8.66;100.00;98867.94;5066049;28;20375;-60
2024/01/03 06:14:33;;;;;;;8.65;2.90;;;;;;;8.74;100.00;98886.66;5061085;28;20107;-59
2024/01/03 06:16:59;;;;;;;11.13;3.03;;;;;;;8.64;100.00;98883.13;5058806;28;20877;-60
2024/01/03 06:19:24;;;;;;;8.15;2.60;;;;;;;8.64;100.00;98881.31;5062840;28;20040;-60
2024/01/03 06:21:49;;;;;;;6.53;2.70;;;;;;;8.70;100.00;98887.06;5058867;28;20479;-60
2024/01/03 06:24:15;;;;;;;7.50;3.10;;;;;;;8.55;100.00;98879.44;5067745;28;20035;-60
2024/01/03 06:26:40;;;;;;;10.68;2.50;;;;;;;8.63;100.00;98895.53;5063064;28;20024;-60
2024/01/03 06:29:06;;;;;;;8.65;2.60;;;;;;;8.62;100.00;98877.13;5059576;28;20098;-59
2024/01/03 06:31:31;;;;;;;5.28;2.40;;;;;;;8.64;100.00;98883.13;5059731;28;20162;-60
2024/01/03 06:33:56;;;;;;;3.53;2.83;;;;;;;8.56;100.00;98878.50;5060002;28;20027;-60
2024/01/03 06:36:22;;;;;;;6.07;2.15;;;;;;;8.47;100.00;98871.34;5066442;28;20446;-59
2024/01/03 06:38:48;;;;;;;7.78;2.75;;;;;;;8.56;100.00;98880.28;5058470;28;20016;-60
2024/01/03 06:41:14;;;;;;;6.35;2.20;;;;;;;8.53;100.00;98892.00;5057838;28;20039;-60
2024/01/03 06:43:39;;;;;;;5.28;2.60;;;;;;;8.46;100.00;98888.19;5060199;28;20120;-60
2024/01/03 06:46:05;;;;;;;8.48;2.45;;;;;;;8.44;100.00;98891.94;5056949;28;20078;-60
2024/01/03 06:48:31;;;;;;;4.00;2.30;;;;;;;8.37;100.00;98876.56;5057420;28;20040;-60
2024/01/03 06:51:02;;;;;;;4.25;2.40;;;;;;;8.40;100.00;98900.16;5056803;28;20020;-59
2024/01/03 06:53:27;;;;;;;4.28;2.30;;;;;;;8.74;100.00;98905.22;5060358;28;20039;-60
2024/01/03 06:55:53;;;;;;;3.45;2.25;;;;;;;8.38;100.00;98904.75;5062102;28;20028;-59
2024/01/03 06:58:19;;;;;;;4.40;2.28;;;;;;;8.33;100.00;98921.97;5064154;28;20067;-60
2024/01/03 07:00:45;;;;;;;8.57;3.47;;;;;;;8.36;100.00;98932.31;5070773;28;20025;-59
2024/01/03 07:03:10;;;;;;;3.67;1.90;;;;;;;8.17;100.00;98928.56;5069962;28;20031;-59
2024/01/03 07:05:35;;;;;;;3.20;1.70;;;;;;;8.13;100.00;98927.13;5071150;28;20103;-59
2024/01/03 07:08:02;;;;;;;3.78;1.85;;;;;;;8.06;100.00;98922.47;5070783;28;20024;-60
2024/01/03 07:10:31;;;;;;;3.60;2.28;;;;;;;8.00;100.00;98918.56;5070599;28;20372;-60
2024/01/03 07:12:58;;;;;;;2.38;1.58;;;;;;;8.04;100.00;98935.03;5070848;28;20905;-60
2024/01/03 07:15:25;;;;;;;1.88;1.77;;;;;;;8.02;100.00;98939.59;5072170;28;20012;-60
2024/01/03 07:17:50;;;;;;;3.10;1.90;;;;;;;7.92;100.00;98935.06;5074482;28;20028;-59
2024/01/03 07:20:16;;;;;;;1.85;1.58;;;;;;;7.87;100.00;98929.31;5060745;28;20013;-60
2024/01/03 07:22:41;;;;;;;1.63;1.52;;;;;;;7.89;100.00;98934.50;5060243;28;20020;-60
2024/01/03 07:25:07;;;;;;;1.70;1.60;;;;;;;7.90;100.00;98931.69;5066754;28;20395;-60
2024/01/03 07:27:32;;;;;;;2.67;1.70;;;;;;;8.05;100.00;98947.28;5071297;28;20025;-60
2024/01/03 07:29:58;;;;;;;3.55;1.90;;;;;;;7.88;100.00;98944.25;5073721;28;20028;-60
2024/01/03 07:32:23;;;;;;;4.75;2.00;;;;;;;7.99;100.00;98939.84;5062071;28;20022;-60
2024/01/03 07:34:48;;;;;;;2.20;1.90;;;;;;;8.01;100.00;98946.69;5053941;28;20114;-60
2024/01/03 07:37:14;;;;;;;2.00;1.90;;;;;;;8.02;100.00;98945.72;5062999;28;20036;-60
2024/01/03 07:39:39;;;;;;;2.33;1.90;;;;;;;7.94;100.00;98945.50;5073834;28;20514;-60
2024/01/03 07:42:06;;;;;;;4.00;2.03;;;;;;;8.07;100.00;98948.84;5072428;28;20112;-60
2024/01/03 07:44:35;;;;;;;3.05;1.95;;;;;;;7.99;100.00;98947.78;5054832;28;20056;-60
2024/01/03 07:47:01;;;;;;;3.45;2.03;;;;;;;7.95;100.00;98956.00;5060131;28;20504;-60
2024/01/03 07:49:26;;;;;;;2.17;2.08;;;;;;;7.95;100.00;98952.50;5071742;28;20035;-59
2024/01/03 07:51:52;;;;;;;3.30;1.75;;;;;;;7.78;100.00;98908.91;5073972;28;20028;-60
2024/01/03 07:54:17;;;;;;;7.65;2.35;;;;;;;7.82;100.00;98939.44;5070611;28;20029;-60
2024/01/03 07:56:42;;;;;;;2.28;2.13;;;;;;;8.00;100.00;98965.34;5054385;28;20096;-60
2024/01/03 07:59:08;;;;;;;6.53;2.42;;;;;;;7.90;100.00;98963.47;5058110;28;20460;-60
2024/01/03 08:01:33;;;;;;;6.00;1.90;;;;;;;7.87;100.00;98955.78;5073677;28;20035;-60
2024/01/03 08:03:59;;;;;;;2.67;2.40;;;;;;;7.94;100.00;98964.03;5065772;28;20028;-60
2024/01/03 08:06:24;;;;;;;4.40;2.28;;;;;;;7.97;100.00;98961.13;5057276;28;20024;-60
2024/01/03 08:08:49;;;;;;;8.45;2.30;;;;;;;7.97;100.00;98945.25;5060685;28;20503;-60
2024/01/03 08:11:15;;;;;;;2.97;1.70;;;;;;;8.07;100.00;98962.06;5061497;28;20051;-60
2024/01/03 08:13:40;;;;;;;18.15;2.75;;;;;;;7.97;100.00;98974.38;5072822;28;20028;-60
2024/01/03 08:16:10;;;;;;;4.30;2.08;;;;;;;8.07;100.00;98970.03;5068812;28;20096;-60
2024/01/03 08:18:36;;;;;;;6.50;2.38;;;;;;;8.04;100.00;98964.97;5053109;28;20067;-60
2024/01/03 08:21:01;;;;;;;9.02;2.05;;;;;;;7.99;100.00;98969.81;5053974;28;20029;-60
2024/01/03 08:23:31;;;;;;;13.25;2.55;;;;;;;8.01;100.00;98972.34;5073118;28;20028;-60
2024/01/03 08:25:56;;;;;;;6.18;2.28;;;;;;;8.00;100.00;98976.81;5072095;28;20027;-60
2024/01/03 08:28:22;;;;;;;6.90;2.88;;;;;;;8.05;100.00;98976.41;5068891;28;20033;-60
2024/01/03 08:30:47;;;;;;;4.82;3.38;;;;;;;8.06;100.00;98984.22;5072558;28;20107;-60
2024/01/03 08:33:15;;;;;;;8.40;2.70;;;;;;;8.07;100.00;98974.47;5058705;28;20445;-60
2024/01/03 08:35:40;;;;;;;9.43;2.58;;;;;;;8.06;100.00;98971.00;5066919;28;20517;-60
2024/01/03 08:38:09;;;;;;;10.55;3.00;;;;;;;8.03;100.00;98971.25;5071589;28;20060;-60
2024/01/03 08:40:37;;;;;;;12.60;3.28;;;;;;;8.02;100.00;98974.84;5065352;28;20029;-60
2024/01/03 08:43:02;;;;;;;6.60;2.60;;;;;;;8.13;100.00;98977.44;5069351;28;20032;-60
2024/01/03 08:45:27;;;;;;;6.13;2.97;;;;;;;8.11;100.00;98981.19;5070744;28;20052;-60
2024/01/03 08:47:53;;;;;;;13.80;3.13;;;;;;;8.15;100.00;98988.75;5070942;28;20413;-60
2024/01/03 08:50:18;;;;;;;6.10;2.75;;;;;;;8.47;100.00;98985.28;5063470;28;20036;-60
2024/01/03 08:52:44;;;;;;;14.30;2.97;;;;;;;8.25;100.00;98986.19;5067372;28;20028;-60
2024/01/03 08:55:10;;;;;;;11.43;3.40;;;;;;;8.36;100.00;98985.28;5070609;28;20387;-60
2024/01/03 08:57:36;;;;;;;12.10;4.00;;;;;;;8.38;100.00;98999.22;5068646;28;20040;-60
2024/01/03 09:00:01;;;;;;;7.75;2.92;;;;;;;8.37;100.00;98984.31;5064358;28;20439;-60
2024/01/03 09:02:27;;;;;;;28.40;4.40;;;;;;;8.56;100.00;98979.19;5054167;28;20036;-60
2024/01/03 09:04:53;;;;;;;15.95;3.97;;;;;;;8.44;100.00;98976.72;5069154;28;20095;-60
2024/01/03 09:07:19;;;;;;;13.45;3.15;;;;;;;8.58;100.00;98997.59;5071745;28;20019;-60
2024/01/03 09:09:44;;;;;;;16.92;3.55;;;;;;;8.51;100.00;98999.09;5069166;28;20423;-60
2024/01/03 09:12:09;;;;;;;14.43;3.78;;;;;;;8.56;100.00;99004.81;5065955;28;20031;-60
2024/01/03 09:14:35;;;;;;;18.23;4.47;;;;;;;8.48;100.00;98991.41;5057194;28;20099;-60
2024/01/03 09:17:02;;;;;;;17.60;4.82;;;;;;;8.63;100.00;99016.59;5058580;28;20032;-60
2024/01/03 09:19:28;;;;;;;14.73;3.90;;;;;;;8.67;100.00;98996.81;5070527;28;20016;-60
2024/01/03 09:21:55;;;;;;;15.50;3.90;;;;;;;8.68;100.00;99010.88;5057124;28;20032;-60
2024/01/03 09:24:20;;;;;;;24.30;4.50;;;;;;;8.74;100.00;99010.41;5065230;28;20028;-60
2024/01/03 09:26:48;;;;;;;13.43;3.75;;;;;;;9.00;100.00;99003.69;5064518;28;20497;-60
2024/01/03 09:29:14;;;;;;;19.33;4.30;;;;;;;8.94;100.00;99006.03;5070167;28;20368;-60
2024/01/03 09:31:45;;;;;;;18.45;3.92;;;;;;;8.99;100.00;99002.00;5069301;28;20028;-60
2024/01/03 09:34:11;;;;;;;12.75;3.20;;;;;;;9.00;100.00;98993.09;5064652;28;20027;-61
2024/01/03 09:36:36;;;;;;;15.45;3.55;;;;;;;9.06;100.00;99007.63;5071433;28;20460;-60
2024/01/03 09:39:02;;;;;;;14.98;4.10;;;;;;;9.09;100.00;99020.63;5069490;28;20052;-60
2024/01/03 09:41:29;;;;;;;16.40;3.67;;;;;;;9.10;100.00;99014.34;5057211;28;20042;-60
2024/01/03 09:43:57;;;;;;;14.32;4.07;;;;;;;9.16;100.00;99007.66;5063069;28;20391;-60
2024/01/03 09:46:23;;;;;;;18.48;3.55;;;;;;;9.13;100.00;99022.03;5064062;28;20041;-60
2024/01/03 09:48:49;;;;;;;13.43;3.88;;;;;;;9.25;100.00;99009.53;5065580;28;20024;-60
2024/01/03 09:51:15;;;;;;;23.55;3.92;;;;;;;9.21;100.00;99014.25;5070860;28;20507;-60
2024/01/03 09:53:41;;;;;;;13.27;4.55;;;;;;;9.52;100.00;99028.31;5069504;28;20098;-60
2024/01/03 09:56:07;;;;;;;25.63;4.32;;;;;;;9.28;100.00;99015.38;5069153;28;20483;-60
2024/01/03 09:58:36;;;;;;;14.13;3.92;;;;;;;9.23;100.00;99016.75;5061820;28;20051;-60
2024/01/03 10:01:02;;;;;;;20.65;4.43;;;;;;;9.31;100.00;99025.72;5068379;28;20028;-60
2024/01/03 10:03:28;;;;;;;20.42;3.65;;;;;;;9.38;100.00;99018.06;5069635;28;20078;-60
2024/01/03 10:06:05;;;;;;;22.35;3.63;;;;;;;9.46;100.00;99038.63;5069802;28;20012;-60
2024/01/03 10:08:31;;;;;;;12.10;3.60;;;;;;;9.41;100.00;99041.72;5070030;28;20024;-60
2024/01/03 10:10:56;;;;;;;22.38;3.95;;;;;;;9.61;100.00;99031.97;5070627;28;20017;-60
2024/01/03 10:13:24;;;;;;;12.45;3.45;;;;;;;9.44;100.00;99040.56;5059449;28;20031;-60
2024/01/03 10:15:50;;;;;;;12.13;3.42;;;;;;;9.43;100.00;99038.91;5055273;28;20055;-61
2024/01/03 10:18:17;;;;;;;16.92;3.72;;;;;;;9.36;100.00;99048.38;5068823;28;20124;-61
2024/01/03 10:20:43;;;;;;;22.48;4.32;;;;;;;9.50;100.00;99038.25;5070623;28;20118;-61
2024/01/03 10:23:10;;;;;;;17.05;4.28;;;;;;;9.53;100.00;99051.25;5070996;28;20039;-60
2024/01/03 10:25:37;;;;;;;26.33;4.88;;;;;;;9.47;100.00;99050.91;5068887;28;20055;-60
2024/01/03 10:28:05;;;;;;;12.40;4.85;;;;;;;9.68;100.00;99042.91;5056353;28;20387;-60
2024/01/03 10:30:31;;;;;;;23.35;4.47;;;;;;;9.76;100.00;99051.00;5049463;28;20071;-60
2024/01/03 10:33:02;;;;;;;14.50;3.88;;;;;;;9.97;100.00;99040.28;5049638;28;20041;-60
2024/01/03 10:35:32;;;;;;;17.50;5.07;;;;;;;9.96;100.00;99046.59;5049747;28;20025;-60
2024/01/03 10:37:59;;;;;;;12.50;3.30;;;;;;;10.24;100.00;99063.56;5049573;28;20056;-60
2024/01/03 10:40:44;;;;;;;14.30;3.65;;;;;;;10.28;100.00;99042.88;5050422;28;20388;-60
2024/01/03 10:43:10;;;;;;;15.57;4.47;;;;;;;10.10;100.00;99056.81;5051180;28;20040;-60
2024/01/03 10:45:38;;;;;;;12.57;3.90;;;;;;;10.01;100.00;99061.13;5049591;28;20045;-60
2024/01/03 10:48:04;;;;;;;14.27;3.88;;;;;;;10.13;100.00;99058.38;5065913;28;20453;-61
2024/01/03 10:50:34;;;;;;;22.73;6.97;;;;;;;9.88;100.00;99047.28;5071187;28;20036;-60
2024/01/03 10:53:06;;;;;;;28.90;6.90;;;;;;;9.87;100.00;99058.03;5074486;28;20128;-60
2024/01/03 10:55:35;;;;;;;11.70;3.60;;;;;;;10.00;100.00;99062.13;5073099;28;20032;-60
2024/01/03 10:58:02;;;;;;;20.92;4.13;;;;;;;9.77;100.00;99044.75;5056404;28;20052;-60
2024/01/03 11:00:55;;;;;;;21.70;3.83;;;;;;;10.24;100.00;99055.59;5052051;28;20041;-60
2024/01/03 11:03:33;;;;;;;19.20;3.92;;;;;;;9.89;100.00;99034.84;5072656;28;20493;-61
2024/01/03 11:06:17;;;;;;;18.95;4.00;;;;;;;9.89;100.00;99037.50;5073146;28;20024;-60
2024/01/03 11:09:02;;;;;;;15.15;3.70;;;;;;;9.87;100.00;99034.97;5070365;28;20031;-60
2024/01/03 11:11:32;;;;;;;21.25;3.95;;;;;;;9.92;100.00;99056.66;5068808;28;20052;-60
2024/01/03 11:13:59;;;;;;;34.17;5.40;;;;;;;9.95;100.00;99061.69;5073543;28;20051;-60
2024/01/03 11:16:38;;;;;;;12.38;3.53;;;;;;;9.88;100.00;99043.78;5065229;28;20031;-60
2024/01/03 11:19:04;;;;;;;26.03;5.67;;;;;;;9.54;100.00;99055.56;5073656;28;20082;-60
2024/01/03 11:21:34;;;;;;;16.63;4.32;;;;;;;9.47;100.00;99062.41;5069777;28;20304;-60
2024/01/03 11:24:06;;;;;;;15.73;3.17;;;;;;;9.42;100.00;99056.66;5059701;28;20024;-60